createdAt,value
2023-05-16T00:06:50.115Z,64.78
2023-05-16T00:16:54.932Z,65.13
2023-05-16T00:26:58.537Z,64.99
2023-05-16T00:37:02.142Z,64.78
2023-05-16T00:47:06.010Z,65.00
2023-05-16T00:57:11.984Z,65.10
2023-05-16T01:07:16.089Z,64.92
2023-05-16T01:17:31.573Z,65.19
2023-05-16T01:27:36.231Z,65.25
2023-05-16T01:38:03.114Z,65.30
2023-05-16T01:48:22.542Z,65.18
2023-05-16T01:58:29.516Z,65.13
2023-05-16T02:08:35.388Z,65.26
2023-05-16T02:18:39.505Z,65.42
2023-05-16T02:28:43.088Z,65.60
2023-05-16T02:38:48.522Z,65.62
2023-05-16T02:48:52.985Z,65.63
2023-05-16T02:58:56.573Z,65.47
2023-05-16T03:09:00.278Z,64.99
2023-05-16T03:19:04.066Z,64.56
2023-05-16T03:29:07.808Z,64.44
2023-05-16T03:39:11.817Z,64.32
2023-05-16T03:49:17.859Z,64.11
2023-05-16T03:59:21.653Z,63.72
2023-05-16T04:09:25.252Z,63.36
2023-05-16T04:19:28.856Z,63.24
2023-05-16T04:29:33.359Z,63.05
2023-05-16T04:39:39.268Z,62.64
2023-05-16T04:49:43.792Z,62.53
2023-05-16T04:59:47.287Z,62.02
2023-05-16T05:09:53.750Z,61.87
2023-05-16T05:20:01.769Z,62.06
2023-05-16T05:30:10.379Z,61.77
2023-05-16T05:40:14.049Z,61.55
2023-05-16T05:50:17.761Z,61.29
2023-05-16T06:00:21.775Z,61.78
2023-05-16T06:10:27.658Z,61.97
2023-05-16T06:20:32.028Z,62.31
2023-05-16T06:30:35.652Z,62.62
2023-05-16T06:40:39.198Z,63.07
2023-05-16T06:50:42.902Z,63.67
2023-05-16T07:00:46.758Z,64.24
2023-05-16T07:10:50.461Z,64.89
2023-05-16T07:20:54.493Z,65.08
2023-05-16T07:31:00.677Z,63.73
2023-05-16T07:41:04.268Z,62.69
2023-05-16T07:51:07.870Z,63.45
2023-05-16T08:01:12.142Z,64.27
2023-05-16T08:11:17.822Z,64.92
2023-05-16T08:21:23.221Z,63.51
2023-05-16T08:31:30.085Z,61.70
2023-05-16T08:41:34.029Z,60.64
2023-05-16T08:51:38.603Z,59.52
2023-05-16T09:01:42.491Z,58.84
2023-05-16T09:11:49.169Z,58.13
2023-05-16T09:21:52.754Z,58.33
2023-05-16T09:32:09.214Z,58.17
2023-05-16T09:42:16.591Z,57.99
2023-05-16T09:52:20.639Z,58.55
2023-05-16T10:02:25.886Z,59.05
2023-05-16T10:12:32.337Z,59.06
2023-05-16T10:22:42.773Z,59.09
2023-05-16T10:32:47.918Z,57.55
2023-05-16T10:43:04.169Z,55.39
2023-05-16T10:53:29.003Z,53.70
2023-05-16T11:03:32.663Z,52.40
2023-05-16T11:13:36.299Z,51.13
2023-05-16T11:23:39.872Z,50.04
2023-05-16T11:33:44.157Z,49.38
2023-05-16T11:43:48.038Z,50.55
2023-05-16T11:53:52.407Z,50.13
2023-05-16T12:04:00.249Z,49.25
2023-05-16T12:14:07.817Z,49.95
2023-05-16T12:24:15.311Z,49.71
2023-05-16T12:34:21.881Z,48.29
2023-05-16T12:44:30.480Z,46.79
2023-05-16T12:54:35.548Z,46.58
2023-05-16T13:04:40.078Z,46.92
2023-05-16T13:14:44.063Z,47.28
2023-05-16T13:24:47.815Z,46.60
2023-05-16T13:34:53.336Z,46.50
2023-05-16T13:44:58.913Z,46.92
2023-05-16T13:55:02.768Z,47.94
2023-05-16T14:05:07.681Z,49.03
2023-05-16T14:15:13.048Z,49.21
2023-05-16T14:25:16.753Z,48.82
2023-05-16T14:35:20.467Z,48.02
2023-05-16T14:45:24.078Z,46.36
2023-05-16T14:55:29.505Z,45.81
2023-05-16T15:05:35.010Z,45.15
2023-05-16T15:15:41.381Z,44.52
2023-05-16T15:25:44.942Z,43.46
2023-05-16T15:35:48.815Z,43.91
2023-05-16T15:45:55.658Z,44.59
2023-05-16T15:55:59.446Z,45.25
2023-05-16T16:06:03.157Z,45.84
2023-05-16T16:16:09.333Z,46.17
2023-05-16T16:26:12.969Z,46.44
2023-05-16T16:36:19.342Z,46.46
2023-05-16T16:46:23.593Z,46.48
2023-05-16T16:56:30.336Z,45.75
2023-05-16T17:06:33.979Z,45.56
2023-05-16T17:16:41.015Z,45.75
2023-05-16T17:26:44.889Z,45.90
2023-05-16T17:36:48.502Z,47.19
2023-05-16T17:46:52.541Z,49.06
2023-05-16T17:56:56.242Z,49.68
2023-05-16T18:07:01.704Z,50.56
2023-05-16T18:17:05.646Z,51.50
2023-05-16T18:27:09.326Z,52.87
2023-05-16T18:37:12.910Z,54.17
2023-05-16T18:47:17.074Z,55.47
2023-05-16T18:57:22.438Z,57.82
2023-05-16T19:07:27.099Z,60.23
2023-05-16T19:17:30.928Z,62.15
2023-05-16T19:27:34.708Z,63.14
2023-05-16T19:37:38.374Z,63.49
2023-05-16T19:47:42.461Z,64.53
2023-05-16T19:57:48.045Z,64.89
2023-05-16T20:07:54.642Z,64.39
2023-05-16T20:18:04.144Z,64.34
2023-05-16T20:28:08.045Z,64.73
2023-05-16T20:38:11.670Z,65.27
2023-05-16T20:48:19.089Z,65.62
2023-05-16T20:58:24.088Z,65.62
2023-05-16T21:08:27.688Z,65.31
2023-05-16T21:18:33.398Z,65.40
2023-05-16T21:28:45.996Z,64.71
2023-05-16T21:38:57.312Z,63.67
2023-05-16T21:49:01.409Z,63.73
2023-05-16T21:59:07.108Z,63.62
2023-05-16T22:09:14.720Z,63.79
2023-05-16T22:19:18.376Z,63.93
2023-05-16T22:29:22.113Z,64.21
2023-05-16T22:39:26.166Z,64.35
2023-05-16T22:49:29.855Z,64.27
2023-05-16T22:59:34.373Z,64.60
2023-05-16T23:09:40.088Z,64.09
2023-05-16T23:19:43.653Z,64.30
2023-05-16T23:29:48.537Z,63.79
2023-05-16T23:39:52.093Z,63.06
2023-05-16T23:49:55.776Z,62.99
